Time;durP1;ratioP1;P1;durP2;ratioP2;P2;SDS_P1;SDS_P2;PMS_P1;PMS_P2;Temp;Humidity;BMP_temperature;BMP_pressure;BME280_temperature;BME280_humidity;BME280_pressure;Samples;Min_cycle;Max_cycle;Signal;HPM_P1;HPM_P2
2023/12/21 00:01:04;;;;;;;17.17;2.38;;;9.60;99.90;;;;;;5054529;28;20609;-68
2023/12/21 00:03:31;;;;;;;16.33;2.60;;;9.50;99.90;;;;;;5084773;28;20040;-68
2023/12/21 00:05:58;;;;;;;12.07;2.25;;;9.60;99.90;;;;;;5091158;28;20182;-68
2023/12/21 00:08:27;;;;;;;17.83;3.40;;;9.60;99.90;;;;;;5090527;28;20126;-68
2023/12/21 00:10:53;;;;;;;10.20;2.45;;;9.60;99.90;;;;;;5083545;28;20087;-68
2023/12/21 00:13:22;;;;;;;12.02;2.15;;;9.60;99.90;;;;;;5077958;28;20123;-69
2023/12/21 00:15:49;;;;;;;17.65;3.35;;;9.60;99.90;;;;;;5069378;28;20044;-68
2023/12/21 00:18:55;;;;;;;7.90;2.17;;;9.60;99.90;;;;;;5081193;28;20094;-68
2023/12/21 00:21:22;;;;;;;14.93;2.83;;;9.60;99.90;;;;;;5064819;28;20063;-69
2023/12/21 00:23:48;;;;;;;;;;;9.60;99.90;;;;;;5089986;28;20043;-68
2023/12/21 00:26:15;;;;;;;13.10;1.90;;;9.60;99.90;;;;;;5087395;28;20026;-68
2023/12/21 00:28:41;;;;;;;18.75;2.20;;;9.60;99.90;;;;;;5069739;28;20252;-69
2023/12/21 00:31:07;;;;;;;9.27;1.88;;;9.60;99.90;;;;;;5090210;28;20418;-68
2023/12/21 00:33:34;;;;;;;8.75;1.83;;;9.60;99.90;;;;;;5091847;28;20479;-69
2023/12/21 00:36:00;;;;;;;11.63;2.15;;;9.60;99.90;;;;;;5090512;28;20036;-68
2023/12/21 00:38:27;;;;;;;16.67;2.92;;;9.60;99.90;;;;;;5071935;28;20028;-69
2023/12/21 00:40:53;;;;;;;;;;;9.60;99.90;;;;;;5075181;28;20036;-68
2023/12/21 00:43:19;;;;;;;11.43;2.03;;;9.60;99.90;;;;;;5082721;28;19996;-68
2023/12/21 00:45:46;;;;;;;13.98;2.10;;;9.60;99.90;;;;;;5090485;28;20038;-68
2023/12/21 00:48:13;;;;;;;8.57;1.75;;;9.60;99.90;;;;;;5088391;28;20048;-68
2023/12/21 00:50:39;;;;;;;13.05;2.35;;;9.60;99.90;;;;;;5072993;28;20395;-68
2023/12/21 00:53:05;;;;;;;12.77;2.55;;;9.60;99.90;;;;;;5080751;28;20107;-68
2023/12/21 00:55:31;;;;;;;17.25;2.40;;;9.60;99.90;;;;;;5081920;28;20040;-69
2023/12/21 00:57:58;;;;;;;10.13;2.17;;;9.60;99.90;;;;;;5089600;28;20081;-68
2023/12/21 01:00:25;;;;;;;8.60;2.28;;;9.60;99.90;;;;;;5091024;28;20032;-68
2023/12/21 01:02:51;;;;;;;8.75;1.75;;;9.60;99.90;;;;;;5075287;28;20039;-68
2023/12/21 01:05:18;;;;;;;;;;;9.60;99.90;;;;;;5087976;28;20055;-68
2023/12/21 01:07:45;;;;;;;8.18;1.48;;;9.60;99.90;;;;;;5069575;28;19923;-68
2023/12/21 01:10:11;;;;;;;12.55;2.08;;;9.60;99.90;;;;;;5065850;28;20590;-68
2023/12/21 01:12:37;;;;;;;;;;;9.60;99.90;;;;;;5069451;28;20513;-69
2023/12/21 01:15:04;;;;;;;10.35;1.80;;;9.50;99.90;;;;;;5087927;28;19928;-68
2023/12/21 01:17:43;;;;;;;12.30;1.55;;;9.60;99.90;;;;;;5074178;28;20564;-69
2023/12/21 01:20:26;;;;;;;17.00;3.35;;;9.60;99.90;;;;;;5091541;28;20416;-69
2023/12/21 01:23:06;;;;;;;13.93;2.17;;;9.60;99.90;;;;;;5090812;28;20066;-69
2023/12/21 01:25:51;;;;;;;19.15;2.20;;;9.60;99.90;;;;;;5091580;28;20078;-67
2023/12/21 01:28:34;;;;;;;11.35;1.50;;;9.60;99.90;;;;;;5075645;28;20496;-69
2023/12/21 01:31:18;;;;;;;9.65;1.95;;;9.50;99.90;;;;;;5075041;28;20083;-69
2023/12/21 01:34:05;;;;;;;8.52;1.92;;;9.50;99.90;;;;;;5091284;28;20131;-68
2023/12/21 01:36:57;;;;;;;8.43;2.08;;;9.50;99.90;;;;;;5074144;28;20132;-68
2023/12/21 01:39:29;;;;;;;10.82;3.50;;;9.50;99.90;;;;;;5069844;28;20052;-67
2023/12/21 01:41:55;;;;;;;12.52;2.72;;;9.50;99.90;;;;;;5080042;28;20040;-67
2023/12/21 01:44:21;;;;;;;5.18;2.03;;;9.50;99.90;;;;;;5089330;28;20052;-68
2023/12/21 01:46:48;;;;;;;8.73;1.75;;;9.50;99.90;;;;;;5090622;28;20036;-67
2023/12/21 01:49:14;;;;;;;12.95;1.92;;;9.30;99.90;;;;;;5089281;28;20101;-67
2023/12/21 01:51:41;;;;;;;16.17;2.25;;;9.40;99.90;;;;;;5085888;28;20050;-67
2023/12/21 01:54:08;;;;;;;13.93;2.58;;;9.50;99.90;;;;;;5073255;28;20412;-68
2023/12/21 01:56:34;;;;;;;5.18;1.67;;;9.40;99.90;;;;;;5097377;28;20085;-67
2023/12/21 01:59:00;;;;;;;13.82;3.05;;;9.40;99.90;;;;;;5069196;28;20063;-68
2023/12/21 02:01:26;;;;;;;7.28;2.10;;;9.40;99.90;;;;;;5082063;28;20299;-67
2023/12/21 02:03:55;;;;;;;9.75;1.55;;;9.40;99.90;;;;;;5089302;28;20048;-67
2023/12/21 02:06:22;;;;;;;10.75;1.77;;;9.40;99.90;;;;;;5085627;28;20045;-69
2023/12/21 02:08:48;;;;;;;7.05;1.52;;;9.50;99.90;;;;;;5083974;28;20468;-67
2023/12/21 02:11:14;;;;;;;10.63;1.70;;;9.50;99.90;;;;;;5087290;28;20063;-68
2023/12/21 02:13:40;;;;;;;13.98;2.20;;;9.50;99.90;;;;;;5074354;28;20055;-68
2023/12/21 02:16:16;;;;;;;9.82;1.80;;;9.50;99.90;;;;;;5087850;28;20036;-68
2023/12/21 02:18:43;;;;;;;8.20;2.23;;;9.50;99.90;;;;;;5084361;28;20229;-69
2023/12/21 02:21:13;;;;;;;11.40;2.75;;;9.50;99.90;;;;;;5089192;28;20316;-68
2023/12/21 02:23:42;;;;;;;7.68;2.75;;;9.50;99.90;;;;;;5082837;28;20119;-68
2023/12/21 02:26:13;;;;;;;10.40;1.98;;;9.50;99.90;;;;;;5088926;28;20120;-67
2023/12/21 02:28:39;;;;;;;10.30;1.83;;;9.50;99.90;;;;;;5068289;28;20035;-69
2023/12/21 02:31:05;;;;;;;9.63;2.03;;;9.50;99.90;;;;;;5091059;28;20197;-67
2023/12/21 02:33:31;;;;;;;12.95;2.42;;;9.50;99.90;;;;;;5087380;28;20059;-68
2023/12/21 02:35:57;;;;;;;9.63;1.65;;;9.50;99.90;;;;;;5089497;28;20036;-67
2023/12/21 02:38:23;;;;;;;7.90;1.90;;;9.50;99.90;;;;;;5089443;28;20137;-67
2023/12/21 02:40:52;;;;;;;5.55;1.50;;;9.50;99.90;;;;;;5089004;28;20044;-67
2023/12/21 02:43:18;;;;;;;9.85;1.55;;;9.50;99.90;;;;;;5092473;28;20511;-68
2023/12/21 02:45:44;;;;;;;4.25;1.63;;;9.50;99.90;;;;;;5091002;28;20430;-67
2023/12/21 02:48:10;;;;;;;8.10;2.13;;;9.50;99.90;;;;;;5076924;28;20586;-67
2023/12/21 02:50:36;;;;;;;11.40;2.33;;;9.50;99.90;;;;;;5092489;28;20411;-68
2023/12/21 02:53:02;;;;;;;13.15;1.48;;;9.50;99.90;;;;;;5091238;28;20044;-67
2023/12/21 02:55:29;;;;;;;10.05;2.72;;;9.50;99.90;;;;;;5086856;28;20051;-67
2023/12/21 02:57:55;;;;;;;;;;;9.50;99.90;;;;;;5098608;28;20040;-67
2023/12/21 03:00:21;;;;;;;6.85;1.63;;;9.50;99.90;;;;;;5081402;27;20071;-68
2023/12/21 03:02:47;;;;;;;10.70;1.98;;;9.50;99.90;;;;;;5073803;28;20103;-68
2023/12/21 03:05:13;;;;;;;10.02;2.17;;;9.50;99.90;;;;;;5082109;28;20481;-68
2023/12/21 03:07:39;;;;;;;10.68;1.88;;;9.40;99.90;;;;;;5092746;28;20423;-68
2023/12/21 03:10:06;;;;;;;11.40;1.95;;;9.40;99.90;;;;;;5096913;28;20048;-69
2023/12/21 03:12:32;;;;;;;10.30;2.42;;;9.40;99.90;;;;;;5091304;28;20039;-69
2023/12/21 03:14:58;;;;;;;13.32;2.20;;;9.40;99.90;;;;;;5073281;28;20130;-68
2023/12/21 03:17:24;;;;;;;4.40;1.45;;;9.40;99.90;;;;;;5093390;28;20050;-69
2023/12/21 03:19:50;;;;;;;18.00;2.55;;;9.40;99.90;;;;;;5062289;28;20040;-69
2023/12/21 03:22:16;;;;;;;15.18;2.28;;;9.40;99.90;;;;;;5085870;28;20068;-69
2023/12/21 03:24:43;;;;;;;8.27;2.15;;;9.40;99.90;;;;;;5060774;28;20068;-67
2023/12/21 03:27:13;;;;;;;12.65;2.20;;;9.40;99.90;;;;;;5087157;28;20548;-67
2023/12/21 03:29:40;;;;;;;16.40;2.25;;;9.40;99.90;;;;;;5085160;28;20048;-67
2023/12/21 03:32:08;;;;;;;11.00;2.17;;;9.40;99.90;;;;;;5088956;28;20396;-67
2023/12/21 03:34:34;;;;;;;11.27;1.95;;;9.40;99.90;;;;;;5090950;28;20059;-68
2023/12/21 03:37:00;;;;;;;11.93;2.27;;;9.40;99.90;;;;;;5090135;28;20040;-67
2023/12/21 03:39:28;;;;;;;11.53;2.20;;;9.40;99.90;;;;;;5087637;28;20515;-68
2023/12/21 03:41:54;;;;;;;10.95;2.10;;;9.40;99.90;;;;;;5087669;28;20172;-68
2023/12/21 03:44:20;;;;;;;10.03;2.00;;;9.40;99.90;;;;;;5089099;28;20125;-68
2023/12/21 03:46:50;;;;;;;7.60;1.90;;;9.40;99.90;;;;;;5083801;28;20070;-68
2023/12/21 03:49:24;;;;;;;15.65;2.28;;;9.40;99.90;;;;;;5088136;28;20056;-68
2023/12/21 03:51:51;;;;;;;11.05;1.63;;;9.40;99.90;;;;;;5072370;28;20051;-68
2023/12/21 03:54:17;;;;;;;13.05;2.22;;;9.40;99.90;;;;;;5087636;28;20044;-67
2023/12/21 03:56:42;;;;;;;15.38;2.33;;;9.40;99.90;;;;;;5074792;28;20121;-68
2023/12/21 03:59:08;;;;;;;12.43;2.50;;;9.40;99.90;;;;;;5084801;28;20040;-68
2023/12/21 04:01:36;;;;;;;10.70;2.43;;;9.40;99.90;;;;;;5089878;28;20434;-67
2023/12/21 04:04:01;;;;;;;11.52;2.42;;;9.40;99.90;;;;;;5091303;28;20452;-67
2023/12/21 04:06:27;;;;;;;9.10;1.83;;;9.40;99.90;;;;;;5087964;28;20123;-68
2023/12/21 04:08:54;;;;;;;19.87;2.10;;;9.40;99.90;;;;;;5090153;28;20039;-68
2023/12/21 04:11:23;;;;;;;12.57;1.80;;;9.40;99.90;;;;;;5089160;28;20047;-68
2023/12/21 04:13:49;;;;;;;8.10;1.48;;;9.40;99.90;;;;;;5088708;28;20062;-68
2023/12/21 04:16:14;;;;;;;9.45;1.25;;;9.40;99.90;;;;;;5061531;28;20036;-68
2023/12/21 04:18:40;;;;;;;12.53;1.70;;;9.40;99.90;;;;;;5087557;28;20609;-67
2023/12/21 04:21:09;;;;;;;11.47;1.70;;;9.40;99.90;;;;;;5090635;28;20081;-67
2023/12/21 04:23:35;;;;;;;9.18;2.35;;;9.40;99.90;;;;;;5087569;28;20051;-67
2023/12/21 04:26:01;;;;;;;5.78;1.65;;;9.40;99.90;;;;;;5085725;28;20032;-67
2023/12/21 04:28:26;;;;;;;8.05;1.40;;;9.40;99.90;;;;;;5083153;28;20040;-67
2023/12/21 04:30:52;;;;;;;14.80;2.40;;;9.30;99.90;;;;;;5079864;28;20101;-67
2023/12/21 04:33:18;;;;;;;11.33;2.23;;;9.30;99.90;;;;;;5063787;28;20307;-67
2023/12/21 04:35:44;;;;;;;10.52;2.05;;;9.30;99.90;;;;;;5089138;28;20048;-67
2023/12/21 04:38:10;;;;;;;8.15;1.60;;;9.30;99.90;;;;;;5081000;28;20505;-67
2023/12/21 04:40:36;;;;;;;11.80;1.77;;;9.30;99.90;;;;;;5087384;28;20032;-68
2023/12/21 04:43:02;;;;;;;8.53;2.40;;;9.40;99.90;;;;;;5087244;28;20044;-67
2023/12/21 04:45:28;;;;;;;10.43;1.77;;;9.30;99.90;;;;;;5081800;28;20079;-68
2023/12/21 04:47:54;;;;;;;9.20;1.40;;;9.30;99.90;;;;;;5088910;28;20078;-68
2023/12/21 04:50:20;;;;;;;6.85;1.80;;;9.40;99.90;;;;;;5086680;28;20047;-68
2023/12/21 04:52:46;;;;;;;14.13;2.03;;;9.40;99.90;;;;;;5088726;28;20487;-68
2023/12/21 04:55:13;;;;;;;7.00;1.85;;;9.30;99.90;;;;;;5089200;28;20168;-68
2023/12/21 04:57:38;;;;;;;7.38;1.50;;;9.30;99.90;;;;;;5083785;28;20503;-68
2023/12/21 05:00:07;;;;;;;10.13;2.03;;;9.40;99.90;;;;;;5081252;28;20123;-67
2023/12/21 05:02:33;;;;;;;15.32;1.85;;;9.40;99.90;;;;;;5078460;28;20033;-68
2023/12/21 05:04:59;;;;;;;5.13;1.13;;;9.40;99.90;;;;;;5067485;28;20040;-68
2023/12/21 05:07:24;;;;;;;11.20;1.67;;;9.40;99.90;;;;;;5078849;28;20039;-68
2023/12/21 05:09:50;;;;;;;8.73;1.60;;;9.40;99.90;;;;;;5082841;28;20276;-68
2023/12/21 05:12:16;;;;;;;10.03;2.03;;;9.40;99.90;;;;;;5084956;28;20135;-68
2023/12/21 05:14:41;;;;;;;9.90;1.80;;;9.40;99.90;;;;;;5081215;28;20511;-68
2023/12/21 05:17:07;;;;;;;12.30;1.93;;;9.50;99.90;;;;;;5082175;28;20119;-68
2023/12/21 05:19:33;;;;;;;8.18;1.60;;;9.50;99.90;;;;;;5060635;28;20838;-68
2023/12/21 05:21:59;;;;;;;10.53;2.20;;;9.50;99.90;;;;;;5083727;28;20044;-67
2023/12/21 05:24:24;;;;;;;11.30;2.00;;;9.50;99.90;;;;;;5084981;28;20032;-68
2023/12/21 05:26:50;;;;;;;16.37;2.50;;;9.50;99.90;;;;;;5077898;28;20090;-67
2023/12/21 05:29:16;;;;;;;9.70;1.60;;;9.50;99.90;;;;;;5083095;28;20524;-68
2023/12/21 05:31:44;;;;;;;12.67;2.57;;;9.50;99.90;;;;;;5084810;28;20374;-68
2023/12/21 05:34:09;;;;;;;11.77;2.05;;;9.60;99.90;;;;;;5080205;28;20059;-68
2023/12/21 05:36:35;;;;;;;7.53;1.67;;;9.60;99.90;;;;;;5075480;28;20040;-68
2023/12/21 05:39:01;;;;;;;13.03;1.83;;;9.60;99.90;;;;;;5086145;28;20028;-68
2023/12/21 05:41:27;;;;;;;8.35;1.38;;;9.60;99.90;;;;;;5080367;28;20048;-68
2023/12/21 05:43:53;;;;;;;14.53;2.20;;;9.60;99.90;;;;;;5074961;28;20048;-68
2023/12/21 05:46:18;;;;;;;11.47;1.97;;;9.60;99.90;;;;;;5082017;28;20119;-68
2023/12/21 05:48:44;;;;;;;11.90;2.27;;;9.60;99.90;;;;;;5081237;28;20123;-68
2023/12/21 05:51:10;;;;;;;13.93;2.47;;;9.60;99.90;;;;;;5089102;28;20047;-68
2023/12/21 05:53:35;;;;;;;15.35;2.63;;;9.60;99.90;;;;;;5087129;28;20076;-68
2023/12/21 05:56:02;;;;;;;13.70;2.63;;;9.60;99.90;;;;;;5089147;28;20130;-68
2023/12/21 05:58:28;;;;;;;10.50;2.05;;;9.60;99.90;;;;;;5087535;28;20474;-68
2023/12/21 06:00:54;;;;;;;7.38;1.63;;;9.60;99.90;;;;;;5080900;28;20145;-68
2023/12/21 06:03:20;;;;;;;9.13;1.67;;;9.60;99.90;;;;;;5078688;28;20131;-68
2023/12/21 06:05:46;;;;;;;11.70;2.40;;;9.60;99.90;;;;;;5087246;28;20123;-68
2023/12/21 06:08:11;;;;;;;6.70;1.50;;;9.60;99.90;;;;;;5084617;28;20051;-68
2023/12/21 06:10:37;;;;;;;10.47;1.87;;;9.60;99.90;;;;;;5083034;28;20752;-68
2023/12/21 06:13:02;;;;;;;15.00;1.77;;;9.70;99.90;;;;;;5088563;28;20060;-68
2023/12/21 06:15:31;;;;;;;11.63;1.83;;;9.70;99.90;;;;;;5079972;28;20095;-68
2023/12/21 06:17:57;;;;;;;10.07;1.60;;;9.70;99.90;;;;;;5081833;28;20273;-67
2023/12/21 06:20:22;;;;;;;8.37;1.60;;;9.60;99.90;;;;;;5091154;28;20488;-68
2023/12/21 06:22:48;;;;;;;11.47;2.67;;;9.70;99.90;;;;;;5094997;28;20063;-68
2023/12/21 06:25:13;;;;;;;6.53;1.70;;;9.60;99.90;;;;;;5091008;28;20162;-67
2023/12/21 06:27:39;;;;;;;6.33;1.80;;;9.60;99.90;;;;;;5092631;28;20351;-68
2023/12/21 06:30:07;;;;;;;10.82;2.38;;;9.70;99.90;;;;;;5087929;28;20496;-68
2023/12/21 06:32:33;;;;;;;9.13;1.88;;;9.60;99.90;;;;;;5067917;28;20044;-68
2023/12/21 06:34:59;;;;;;;9.33;2.23;;;9.60;99.90;;;;;;5092773;28;20048;-68
2023/12/21 06:37:24;;;;;;;8.10;1.77;;;9.60;99.90;;;;;;5089388;28;20109;-68
2023/12/21 06:39:50;;;;;;;7.53;1.40;;;9.60;99.90;;;;;;5084620;28;20038;-68
2023/12/21 06:42:15;;;;;;;8.63;2.00;;;9.60;99.90;;;;;;5091964;28;20473;-68
2023/12/21 06:44:42;;;;;;;6.33;1.83;;;9.50;99.90;;;;;;5086745;28;20072;-68
2023/12/21 06:47:07;;;;;;;8.48;1.55;;;9.50;99.90;;;;;;5090855;28;20075;-68
2023/12/21 06:49:33;;;;;;;10.30;2.67;;;9.50;99.90;;;;;;5092430;28;20047;-68
2023/12/21 06:51:59;;;;;;;5.63;1.33;;;9.50;99.90;;;;;;5096733;28;20462;-68
2023/12/21 06:54:24;;;;;;;7.07;1.47;;;9.50;99.90;;;;;;5088401;28;20044;-68
2023/12/21 06:56:52;;;;;;;10.10;1.60;;;9.50;99.90;;;;;;5089822;28;20036;-68
2023/12/21 06:59:18;;;;;;;4.15;1.00;;;9.50;99.90;;;;;;5084606;28;20036;-68
2023/12/21 07:01:43;;;;;;;4.27;1.63;;;9.50;99.90;;;;;;5090744;28;20059;-68
2023/12/21 07:04:12;;;;;;;4.77;1.17;;;9.50;99.90;;;;;;5089103;28;20404;-68
2023/12/21 07:06:37;;;;;;;5.50;1.58;;;9.50;99.90;;;;;;5093285;28;20043;-68
2023/12/21 07:09:06;;;;;;;9.18;1.55;;;9.50;99.90;;;;;;5092684;28;20048;-68
2023/12/21 07:11:32;;;;;;;6.45;1.88;;;9.40;99.90;;;;;;5091252;28;20059;-69
2023/12/21 07:13:57;;;;;;;6.50;1.15;;;9.40;99.90;;;;;;5070719;28;20270;-67
2023/12/21 07:16:23;;;;;;;6.03;1.17;;;9.50;99.90;;;;;;5084029;28;20090;-68
2023/12/21 07:18:51;;;;;;;10.37;2.00;;;9.50;99.90;;;;;;5070100;28;20537;-68
2023/12/21 07:21:17;;;;;;;5.38;1.20;;;9.50;99.90;;;;;;5092453;28;20461;-73
2023/12/21 07:23:42;;;;;;;12.03;1.77;;;9.50;99.90;;;;;;5090129;28;20044;-68
2023/12/21 07:26:10;;;;;;;7.67;1.53;;;9.50;99.90;;;;;;5088214;28;20040;-67
2023/12/21 07:28:36;;;;;;;8.38;1.55;;;9.50;99.90;;;;;;5092541;28;20909;-68
2023/12/21 07:31:02;;;;;;;9.37;1.80;;;9.50;99.90;;;;;;5073171;28;20074;-67
2023/12/21 07:33:28;;;;;;;6.63;1.40;;;9.50;99.90;;;;;;5089323;28;20260;-68
2023/12/21 07:35:54;;;;;;;12.60;2.35;;;9.50;99.90;;;;;;5098646;27;20389;-73
2023/12/21 07:38:19;;;;;;;7.40;1.40;;;9.50;99.90;;;;;;5073110;28;20044;-68
2023/12/21 07:40:45;;;;;;;11.47;2.53;;;9.50;99.90;;;;;;5092201;28;20042;-68
2023/12/21 07:43:11;;;;;;;7.03;1.80;;;9.50;99.90;;;;;;5092482;28;20044;-68
2023/12/21 07:45:37;;;;;;;10.23;1.88;;;9.50;99.90;;;;;;5085859;28;20101;-68
2023/12/21 07:48:03;;;;;;;8.10;2.07;;;9.50;99.90;;;;;;5086443;28;20564;-68
2023/12/21 07:50:29;;;;;;;6.88;1.40;;;9.50;99.90;;;;;;5088053;28;20044;-68
2023/12/21 07:52:56;;;;;;;7.45;2.08;;;9.50;99.90;;;;;;5080835;28;20065;-67
2023/12/21 07:55:24;;;;;;;;;;;9.50;99.90;;;;;;5085314;28;20056;-68
2023/12/21 07:57:50;;;;;;;12.40;2.15;;;9.40;99.90;;;;;;5088595;28;19915;-68
2023/12/21 08:00:15;;;;;;;8.60;2.03;;;9.40;99.90;;;;;;5089283;28;20036;-68
2023/12/21 08:02:44;;;;;;;8.07;2.10;;;9.50;99.90;;;;;;5089291;28;20040;-68
2023/12/21 08:05:12;;;;;;;10.82;2.45;;;9.50;99.90;;;;;;5096312;28;20122;-67
2023/12/21 08:07:38;;;;;;;9.43;1.83;;;9.50;99.90;;;;;;5086982;28;20052;-67
2023/12/21 08:10:05;;;;;;;8.38;2.25;;;9.50;99.90;;;;;;5083513;28;20044;-68
2023/12/21 08:12:30;;;;;;;11.57;2.45;;;9.60;99.90;;;;;;5082158;28;20122;-68
2023/12/21 08:14:56;;;;;;;8.30;1.60;;;9.50;99.90;;;;;;5085983;28;20132;-67
2023/12/21 08:17:22;;;;;;;18.33;2.80;;;9.70;99.90;;;;;;5090545;28;20055;-67
2023/12/21 08:19:47;;;;;;;12.30;2.97;;;9.60;99.90;;;;;;5087966;28;20408;-67
2023/12/21 08:22:13;;;;;;;7.23;1.83;;;9.60;99.90;;;;;;5091207;28;20124;-68
2023/12/21 08:24:39;;;;;;;17.63;3.07;;;9.70;99.90;;;;;;5088461;28;20036;-68
2023/12/21 08:27:06;;;;;;;11.57;2.53;;;9.70;99.90;;;;;;5086105;28;20047;-67
2023/12/21 08:29:31;;;;;;;14.98;2.90;;;9.70;99.90;;;;;;5084838;28;20047;-67
2023/12/21 08:31:57;;;;;;;11.03;2.67;;;9.70;99.90;;;;;;5082547;28;20408;-67
2023/12/21 08:34:23;;;;;;;13.60;2.40;;;9.80;99.90;;;;;;5086834;28;20288;-68
2023/12/21 08:36:49;;;;;;;16.97;2.00;;;9.80;99.90;;;;;;5059445;28;20201;-67
2023/12/21 08:39:15;;;;;;;15.02;2.58;;;9.90;99.90;;;;;;5065650;28;20119;-67
2023/12/21 08:41:41;;;;;;;19.45;2.60;;;9.80;99.90;;;;;;5083110;28;20255;-67
2023/12/21 08:44:07;;;;;;;19.23;2.00;;;9.90;99.90;;;;;;5070728;28;20133;-67
2023/12/21 08:46:33;;;;;;;12.55;2.42;;;9.90;99.90;;;;;;5087897;28;20071;-67
2023/12/21 08:48:58;;;;;;;10.33;1.70;;;10.00;99.90;;;;;;5089589;28;20121;-67
2023/12/21 08:51:24;;;;;;;23.70;3.27;;;10.00;99.90;;;;;;5087542;28;20412;-67
2023/12/21 08:53:50;;;;;;;8.30;2.70;;;10.00;99.90;;;;;;5080860;28;20100;-67
2023/12/21 08:56:15;;;;;;;11.63;1.77;;;10.00;99.90;;;;;;5081890;28;20036;-67
2023/12/21 08:58:41;;;;;;;11.43;3.47;;;10.00;99.90;;;;;;5079643;28;20047;-67
2023/12/21 09:01:07;;;;;;;5.70;1.70;;;10.00;99.90;;;;;;5088351;28;20036;-69
2023/12/21 09:03:32;;;;;;;17.77;3.27;;;10.00;99.90;;;;;;5080421;28;20036;-69
2023/12/21 09:05:58;;;;;;;13.40;2.37;;;10.10;99.90;;;;;;5079965;28;20273;-69
2023/12/21 09:08:23;;;;;;;8.80;2.17;;;10.10;99.90;;;;;;5081254;28;20462;-68
2023/12/21 09:10:49;;;;;;;15.60;2.17;;;10.10;99.90;;;;;;5084778;28;20043;-67
2023/12/21 09:13:15;;;;;;;12.25;2.45;;;10.10;99.90;;;;;;5084036;28;20170;-69
2023/12/21 09:15:40;;;;;;;17.67;2.63;;;10.10;99.90;;;;;;5082636;28;20075;-69
2023/12/21 09:18:06;;;;;;;11.20;2.20;;;10.20;99.90;;;;;;5087989;28;20169;-67
2023/12/21 09:20:32;;;;;;;11.93;2.13;;;10.20;99.90;;;;;;5077590;28;20040;-67
2023/12/21 09:22:58;;;;;;;23.87;2.10;;;10.20;99.90;;;;;;5069937;28;20079;-67
2023/12/21 09:25:23;;;;;;;12.43;1.60;;;10.20;99.90;;;;;;5082312;28;20083;-67
2023/12/21 09:27:49;;;;;;;9.73;2.33;;;10.20;99.90;;;;;;5081784;28;20039;-67
2023/12/21 09:30:16;;;;;;;14.83;2.10;;;10.20;99.90;;;;;;5085019;28;20381;-67
2023/12/21 09:32:42;;;;;;;6.30;1.70;;;10.30;99.90;;;;;;5081503;28;20114;-67
2023/12/21 09:35:08;;;;;;;11.83;2.70;;;10.40;99.90;;;;;;5083105;28;20128;-67
2023/12/21 09:37:35;;;;;;;12.65;2.67;;;10.40;99.90;;;;;;5080753;28;20741;-67
2023/12/21 09:40:02;;;;;;;13.10;2.50;;;10.50;99.90;;;;;;5079226;28;20055;-67
2023/12/21 09:42:29;;;;;;;;;;;10.50;99.90;;;;;;5085401;28;20139;-68
2023/12/21 09:44:56;;;;;;;16.63;2.28;;;10.50;99.90;;;;;;5090297;28;19923;-68
2023/12/21 09:47:24;;;;;;;16.17;1.98;;;10.50;99.90;;;;;;5086621;28;20043;-68
2023/12/21 09:49:54;;;;;;;19.13;2.90;;;10.50;99.90;;;;;;5085055;28;20044;-68
2023/12/21 09:52:20;;;;;;;14.73;2.30;;;10.50;99.90;;;;;;5087713;28;20040;-69
2023/12/21 09:54:50;;;;;;;7.78;1.83;;;10.50;99.90;;;;;;5070920;28;20142;-68
2023/12/21 09:57:17;;;;;;;7.93;2.20;;;10.50;99.90;;;;;;5064541;28;20096;-69
2023/12/21 09:59:42;;;;;;;12.57;2.17;;;10.50;99.90;;;;;;5076990;28;20035;-69
2023/12/21 10:02:14;;;;;;;12.40;1.87;;;10.60;99.90;;;;;;5088542;28;20192;-69
2023/12/21 10:04:41;;;;;;;15.55;2.33;;;10.60;99.90;;;;;;5081065;28;20040;-69
2023/12/21 10:07:09;;;;;;;10.60;2.00;;;10.60;99.90;;;;;;5089299;28;20036;-68
2023/12/21 10:09:36;;;;;;;18.48;2.45;;;10.70;99.90;;;;;;5085100;28;20471;-69
2023/12/21 10:12:02;;;;;;;13.60;1.77;;;10.70;99.90;;;;;;5081593;28;20109;-68
2023/12/21 10:14:29;;;;;;;8.13;1.88;;;10.70;99.90;;;;;;5087799;28;20036;-68
2023/12/21 10:16:55;;;;;;;12.50;2.22;;;10.70;99.90;;;;;;5079304;28;20559;-68
2023/12/21 10:19:21;;;;;;;12.17;2.27;;;10.80;99.90;;;;;;5085153;28;20071;-68
2023/12/21 10:21:46;;;;;;;10.13;2.10;;;10.80;99.90;;;;;;5083062;28;20032;-68
2023/12/21 10:24:13;;;;;;;9.47;1.87;;;10.80;99.90;;;;;;5084559;28;20043;-67
2023/12/21 10:26:44;;;;;;;18.45;2.00;;;10.90;99.90;;;;;;5082901;28;20044;-68
2023/12/21 10:29:12;;;;;;;14.65;2.05;;;11.00;99.90;;;;;;5084995;28;20129;-69
2023/12/21 10:31:44;;;;;;;12.60;1.52;;;11.00;99.90;;;;;;5085551;28;20044;-68
2023/12/21 10:34:09;;;;;;;13.13;2.28;;;11.00;99.90;;;;;;5084353;28;20048;-69
2023/12/21 10:36:40;;;;;;;6.32;1.80;;;11.00;99.90;;;;;;5070505;28;20035;-67
2023/12/21 10:39:07;;;;;;;6.78;2.03;;;11.00;99.90;;;;;;5080065;28;20115;-68
2023/12/21 10:41:33;;;;;;;18.95;2.75;;;11.10;99.90;;;;;;5070013;28;20043;-68
2023/12/21 10:43:59;;;;;;;10.95;2.03;;;11.10;99.90;;;;;;5077133;28;20500;-67
2023/12/21 10:46:31;;;;;;;6.93;1.50;;;11.10;99.90;;;;;;5085731;28;20040;-68
2023/12/21 10:49:01;;;;;;;10.25;1.35;;;11.10;99.90;;;;;;5084358;28;20058;-67
2023/12/21 10:51:37;;;;;;;12.48;2.90;;;11.00;99.90;;;;;;5082339;28;20125;-67
2023/12/21 10:54:06;;;;;;;28.48;2.30;;;10.90;99.90;;;;;;5082885;28;20052;-68
2023/12/21 10:56:34;;;;;;;16.92;2.40;;;11.00;99.90;;;;;;5082612;28;20060;-69
2023/12/21 10:59:01;;;;;;;14.00;1.77;;;11.10;99.90;;;;;;5076433;28;20036;-69
2023/12/21 11:01:30;;;;;;;12.13;2.60;;;11.10;99.90;;;;;;5073715;28;20040;-69
2023/12/21 11:04:01;;;;;;;13.30;2.80;;;11.00;99.90;;;;;;5086683;28;20099;-69
2023/12/21 11:06:34;;;;;;;25.85;3.65;;;11.10;99.90;;;;;;5062816;28;20048;-67
2023/12/21 11:09:06;;;;;;;18.83;3.13;;;11.10;99.90;;;;;;5097452;28;20040;-70
2023/12/21 11:11:36;;;;;;;20.73;3.97;;;11.10;99.90;;;;;;5096074;28;20036;-69
2023/12/21 11:14:02;;;;;;;20.77;2.47;;;11.20;99.90;;;;;;5088450;28;20107;-68
2023/12/21 11:16:41;;;;;;;11.10;2.43;;;11.10;99.90;;;;;;5088360;28;20035;-69
2023/12/21 11:19:10;;;;;;;15.55;2.28;;;11.10;99.90;;;;;;5088843;28;20054;-68
2023/12/21 11:21:36;;;;;;;21.23;2.28;;;11.00;99.90;;;;;;5070337;28;20044;-69
2023/12/21 11:24:02;;;;;;;12.32;2.33;;;11.10;99.90;;;;;;5086372;28;20281;-68
2023/12/21 11:26:28;;;;;;;17.25;2.53;;;11.10;99.90;;;;;;5087010;28;20044;-68
2023/12/21 11:29:07;;;;;;;;;;;11.10;99.90;;;;;;5084056;28;20072;-69
2023/12/21 11:31:37;;;;;;;;;;;11.20;99.90;;;;;;5076454;28;19923;-68
2023/12/21 11:34:35;;;;;;;16.58;2.78;;;11.20;99.90;;;;;;5092962;28;20379;-69
2023/12/21 11:37:23;;;;;;;14.23;2.10;;;11.20;99.90;;;;;;5083903;28;20050;-69
2023/12/21 11:39:52;;;;;;;20.08;3.40;;;11.20;99.90;;;;;;5065400;28;20056;-69
2023/12/21 11:42:20;;;;;;;21.10;3.83;;;11.20;99.90;;;;;;5070680;28;20254;-69
2023/12/21 11:44:55;;;;;;;14.02;3.20;;;11.30;99.90;;;;;;5069275;28;20048;-69
2023/12/21 11:47:20;;;;;;;14.43;3.53;;;11.30;99.90;;;;;;5092007;28;20078;-68
2023/12/21 11:49:46;;;;;;;15.60;2.20;;;11.30;99.90;;;;;;5085152;28;20492;-69
2023/12/21 11:52:22;;;;;;;22.07;2.50;;;11.40;99.90;;;;;;5077104;28;20099;-69
2023/12/21 11:54:48;;;;;;;22.08;2.80;;;11.40;99.90;;;;;;5089118;28;20093;-69
2023/12/21 11:57:16;;;;;;;14.23;2.73;;;11.40;99.90;;;;;;5063866;28;20051;-68
2023/12/21 11:59:42;;;;;;;15.05;1.85;;;11.40;99.90;;;;;;5091888;28;20035;-69
2023/12/21 12:02:11;;;;;;;9.27;2.58;;;11.50;99.90;;;;;;5087348;28;20092;-69
2023/12/21 12:04:36;;;;;;;14.48;2.35;;;11.50;99.90;;;;;;5084852;28;20055;-70
2023/12/21 12:07:04;;;;;;;12.77;2.57;;;11.50;99.90;;;;;;5089409;28;20044;-69
2023/12/21 12:09:29;;;;;;;16.05;1.80;;;11.50;99.90;;;;;;5069132;28;20040;-69
2023/12/21 12:11:55;;;;;;;8.63;1.67;;;11.50;99.90;;;;;;5092206;28;20496;-69
2023/12/21 12:14:21;;;;;;;16.05;2.17;;;11.60;99.90;;;;;;5092855;28;20123;-69
2023/12/21 12:16:48;;;;;;;8.75;1.55;;;11.60;99.90;;;;;;5075714;28;20036;-69
2023/12/21 12:19:14;;;;;;;17.67;2.40;;;11.60;99.90;;;;;;5089761;28;20189;-68
2023/12/21 12:21:41;;;;;;;12.77;2.15;;;11.60;99.90;;;;;;5090634;28;20046;-71
2023/12/21 12:24:07;;;;;;;13.57;2.45;;;11.60;99.90;;;;;;5091904;28;20039;-68
2023/12/21 12:26:36;;;;;;;13.05;3.40;;;11.60;99.90;;;;;;5089781;28;20044;-69
2023/12/21 12:29:03;;;;;;;17.50;2.50;;;11.60;99.90;;;;;;5094999;28;20130;-68
2023/12/21 12:31:30;;;;;;;13.82;2.47;;;11.60;99.90;;;;;;5096169;28;20446;-69
2023/12/21 12:33:56;;;;;;;12.80;2.75;;;11.50;99.90;;;;;;5093182;28;20082;-69
2023/12/21 12:36:22;;;;;;;21.42;2.90;;;11.50;99.90;;;;;;5076284;28;20036;-68
2023/12/21 12:38:50;;;;;;;15.77;2.67;;;11.50;99.90;;;;;;5097462;28;20504;-68
2023/12/21 12:41:24;;;;;;;16.63;2.42;;;11.50;99.90;;;;;;5095862;28;20169;-68
2023/12/21 12:43:51;;;;;;;17.85;2.75;;;11.40;99.90;;;;;;5095258;28;20036;-68
2023/12/21 12:46:17;;;;;;;16.88;2.45;;;11.40;99.90;;;;;;5094175;28;20033;-68
2023/12/21 12:48:44;;;;;;;16.23;3.78;;;11.40;99.90;;;;;;5094656;28;20500;-69
2023/12/21 12:51:11;;;;;;;19.13;2.55;;;11.40;99.90;;;;;;5095842;28;20051;-69